createdAt,value
2023-01-15T00:02:25.389Z,96813.84
2023-01-15T00:04:54.119Z,96804.13
2023-01-15T00:07:22.649Z,96816.00
2023-01-15T00:09:51.857Z,96806.16
2023-01-15T00:12:20.428Z,96800.44
2023-01-15T00:14:48.925Z,96799.84
2023-01-15T00:17:17.580Z,96798.03
2023-01-15T00:19:48.314Z,96809.66
2023-01-15T00:22:17.033Z,96808.28
2023-01-15T00:25:02.790Z,96794.59
2023-01-15T00:27:43.851Z,96793.94
2023-01-15T00:30:18.602Z,96788.19
2023-01-15T00:32:47.200Z,96796.66
2023-01-15T00:35:20.539Z,96794.75
2023-01-15T00:37:49.377Z,96792.16
2023-01-15T00:40:21.671Z,96790.00
2023-01-15T00:42:54.372Z,96790.00
2023-01-15T00:45:24.378Z,96792.25
2023-01-15T00:47:53.293Z,96786.53
2023-01-15T00:50:24.144Z,96784.09
2023-01-15T00:52:52.670Z,96778.03
2023-01-15T00:55:22.400Z,96780.75
2023-01-15T00:57:50.925Z,96773.28
2023-01-15T01:00:20.060Z,96773.28
2023-01-15T01:02:48.784Z,96763.91
2023-01-15T01:05:17.462Z,96763.78
2023-01-15T01:07:47.347Z,96764.53
2023-01-15T01:10:16.667Z,96767.25
2023-01-15T01:12:45.577Z,96767.78
2023-01-15T01:15:14.066Z,96773.38
2023-01-15T01:17:43.635Z,96761.75
2023-01-15T01:20:15.238Z,96757.34
2023-01-15T01:22:44.192Z,96760.50
2023-01-15T01:25:14.202Z,96758.59
2023-01-15T01:27:45.741Z,96754.47
2023-01-15T01:30:15.881Z,96741.31
2023-01-15T01:32:46.897Z,96749.31
2023-01-15T01:35:15.542Z,96740.38
2023-01-15T01:37:44.410Z,96739.25
2023-01-15T01:40:15.124Z,96737.28
2023-01-15T01:42:43.666Z,96742.09
2023-01-15T01:45:25.085Z,96735.19
2023-01-15T01:47:58.830Z,96734.34
2023-01-15T01:50:31.081Z,96733.78
2023-01-15T01:53:04.982Z,96729.66
2023-01-15T01:55:37.137Z,96719.00
2023-01-15T01:58:09.782Z,96721.72
2023-01-15T02:00:43.361Z,96717.88
2023-01-15T02:03:12.414Z,96721.47
2023-01-15T02:05:48.806Z,96713.22
2023-01-15T02:08:17.452Z,96711.81
2023-01-15T02:10:54.405Z,96709.94
2023-01-15T02:13:39.826Z,96695.91
2023-01-15T02:16:17.669Z,96697.16
2023-01-15T02:18:59.503Z,96683.06
2023-01-15T02:21:52.357Z,96690.19
2023-01-15T02:24:38.164Z,96686.41
2023-01-15T02:27:17.671Z,96693.38
2023-01-15T02:29:57.052Z,96667.84
2023-01-15T02:32:35.898Z,96668.72
2023-01-15T02:35:13.936Z,96672.03
2023-01-15T02:37:50.690Z,96667.09
2023-01-15T02:40:22.912Z,96665.16
2023-01-15T02:42:56.243Z,96656.09
2023-01-15T02:45:31.414Z,96659.63
2023-01-15T02:48:12.144Z,96666.69
2023-01-15T02:50:46.427Z,96656.94
2023-01-15T02:53:23.824Z,96663.19
2023-01-15T02:55:57.488Z,96650.13
2023-01-15T02:58:39.497Z,96639.94
2023-01-15T03:01:16.238Z,96659.41
2023-01-15T03:03:55.214Z,96650.09
2023-01-15T03:06:37.159Z,96630.28
2023-01-15T03:09:07.408Z,96623.56
2023-01-15T03:11:45.082Z,96617.91
2023-01-15T03:14:22.946Z,96618.59
2023-01-15T03:16:59.941Z,96602.44
2023-01-15T03:19:39.026Z,96611.06
2023-01-15T03:22:14.306Z,96610.34
2023-01-15T03:24:50.552Z,96600.25
2023-01-15T03:27:21.107Z,96604.25
2023-01-15T03:30:01.740Z,96603.16
2023-01-15T03:32:32.316Z,96598.69
2023-01-15T03:35:03.710Z,96602.38
2023-01-15T03:37:33.439Z,96600.88
2023-01-15T03:40:04.339Z,96585.84
2023-01-15T03:43:11.697Z,96589.94
2023-01-15T03:45:46.920Z,96598.63
2023-01-15T03:48:25.717Z,96593.84
2023-01-15T03:51:09.361Z,96600.88
2023-01-15T03:53:45.155Z,96588.88
2023-01-15T03:56:23.408Z,96585.69
2023-01-15T03:58:59.377Z,96577.19
2023-01-15T04:01:43.730Z,96577.63
2023-01-15T04:04:16.416Z,96585.22
2023-01-15T04:06:46.541Z,96572.13
2023-01-15T04:09:17.809Z,96568.38
2023-01-15T04:11:47.464Z,96567.69
2023-01-15T04:14:16.759Z,96569.28
2023-01-15T04:16:50.590Z,96553.94
2023-01-15T04:19:19.408Z,96565.81
2023-01-15T04:22:01.475Z,96573.69
2023-01-15T04:24:30.286Z,96562.81
2023-01-15T04:26:58.963Z,96551.06
2023-01-15T04:29:27.671Z,96570.25
2023-01-15T04:31:58.285Z,96586.56
2023-01-15T04:34:27.615Z,96570.34
2023-01-15T04:36:56.799Z,96565.44
2023-01-15T04:39:25.644Z,96571.03
2023-01-15T04:42:11.865Z,96558.13
2023-01-15T04:44:40.885Z,96556.47
2023-01-15T04:47:10.895Z,96558.91
2023-01-15T04:49:39.446Z,96551.13
2023-01-15T04:52:07.999Z,96547.16
2023-01-15T04:54:36.587Z,96548.91
2023-01-15T04:57:05.202Z,96542.44
2023-01-15T04:59:33.868Z,96544.16
2023-01-15T05:02:05.674Z,96541.22
2023-01-15T05:04:37.014Z,96541.81
2023-01-15T05:07:07.126Z,96555.94
2023-01-15T05:09:35.857Z,96538.03
2023-01-15T05:12:04.821Z,96531.56
2023-01-15T05:14:33.552Z,96533.13
2023-01-15T05:17:02.088Z,96531.31
2023-01-15T05:19:30.677Z,96527.88
2023-01-15T05:22:00.542Z,96515.16
2023-01-15T05:24:29.066Z,96515.94
2023-01-15T05:26:58.221Z,96521.84
2023-01-15T05:29:26.975Z,96516.28
2023-01-15T05:31:55.620Z,96516.94
2023-01-15T05:34:24.406Z,96511.53
2023-01-15T05:36:52.956Z,96492.31
2023-01-15T05:39:22.875Z,96499.28
2023-01-15T05:41:51.641Z,96491.16
2023-01-15T05:44:25.099Z,96487.38
2023-01-15T05:46:57.090Z,96495.41
2023-01-15T05:49:28.440Z,96477.13
2023-01-15T05:51:56.973Z,96467.38
2023-01-15T05:54:30.889Z,96476.28
2023-01-15T05:57:01.335Z,96475.31
2023-01-15T05:59:32.578Z,96472.19
2023-01-15T06:02:01.477Z,96464.50
2023-01-15T06:04:30.046Z,96460.97
2023-01-15T06:06:59.154Z,96472.88
2023-01-15T06:09:29.706Z,96470.78
2023-01-15T06:11:58.569Z,96467.53
2023-01-15T06:14:27.326Z,96479.22
2023-01-15T06:16:55.910Z,96473.06
2023-01-15T06:19:24.438Z,96471.59
2023-01-15T06:21:52.958Z,96482.50
2023-01-15T06:24:21.500Z,96487.09
2023-01-15T06:26:51.359Z,96475.34
2023-01-15T06:29:20.512Z,96480.44
2023-01-15T06:31:49.515Z,96478.19
2023-01-15T06:34:18.416Z,96469.53
2023-01-15T06:36:46.925Z,96463.72
2023-01-15T06:39:16.393Z,96458.41
2023-01-15T06:42:02.560Z,96466.25
2023-01-15T06:44:50.058Z,96445.28
2023-01-15T06:47:24.822Z,96453.25
2023-01-15T06:49:57.615Z,96448.06
2023-01-15T06:52:28.318Z,96449.91
2023-01-15T06:54:57.471Z,96443.75
2023-01-15T06:57:26.175Z,96433.09
2023-01-15T06:59:56.030Z,96433.81
2023-01-15T07:02:24.587Z,96438.84
2023-01-15T07:04:53.264Z,96419.72
2023-01-15T07:07:23.367Z,96422.16
2023-01-15T07:09:52.369Z,96429.06
2023-01-15T07:12:21.008Z,96406.56
2023-01-15T07:14:49.575Z,96410.16
2023-01-15T07:17:20.036Z,96411.25
2023-01-15T07:19:48.771Z,96399.75
2023-01-15T07:22:17.309Z,96401.69
2023-01-15T07:24:45.789Z,96407.09
2023-01-15T07:27:14.302Z,96424.22
2023-01-15T07:29:42.996Z,96412.31
2023-01-15T07:32:12.286Z,96408.69
2023-01-15T07:34:42.419Z,96402.31
2023-01-15T07:37:11.273Z,96395.22
2023-01-15T07:39:39.882Z,96405.81
2023-01-15T07:42:28.900Z,96396.72
2023-01-15T07:45:15.002Z,96388.13
2023-01-15T07:48:00.948Z,96382.38
2023-01-15T07:50:31.170Z,96404.03
2023-01-15T07:52:59.725Z,96389.34
2023-01-15T07:55:28.512Z,96392.66
2023-01-15T07:57:59.992Z,96379.59
2023-01-15T08:00:28.670Z,96377.94
2023-01-15T08:02:57.699Z,96391.38
2023-01-15T08:05:26.415Z,96387.41
2023-01-15T08:07:56.405Z,96386.25
2023-01-15T08:10:26.252Z,96384.81
2023-01-15T08:13:12.434Z,96385.13
2023-01-15T08:15:44.299Z,96390.53
2023-01-15T08:18:13.255Z,96386.91
2023-01-15T08:20:42.031Z,96396.59
2023-01-15T08:23:11.896Z,96400.47
2023-01-15T08:25:40.442Z,96402.81
2023-01-15T08:28:08.968Z,96388.81
2023-01-15T08:30:37.812Z,96382.00
2023-01-15T08:33:06.356Z,96395.31
2023-01-15T08:35:35.456Z,96389.50
2023-01-15T08:38:07.300Z,96397.09
2023-01-15T08:40:58.130Z,96396.50
2023-01-15T08:43:27.229Z,96392.91
2023-01-15T08:45:59.199Z,96402.72
2023-01-15T08:48:30.434Z,96396.91
2023-01-15T08:50:59.765Z,96392.59
2023-01-15T08:53:29.702Z,96382.50
2023-01-15T08:56:00.089Z,96393.41
2023-01-15T08:58:30.822Z,96395.34
2023-01-15T09:01:06.850Z,96404.72
2023-01-15T09:03:36.657Z,96410.66
2023-01-15T09:06:06.570Z,96408.06
2023-01-15T09:08:35.265Z,96412.22
2023-01-15T09:11:09.650Z,96414.66
2023-01-15T09:13:38.974Z,96411.94
2023-01-15T09:16:10.000Z,96413.34
2023-01-15T09:18:39.960Z,96412.66
2023-01-15T09:21:08.611Z,96423.31
2023-01-15T09:23:37.328Z,96425.72
2023-01-15T09:26:09.009Z,96436.41
2023-01-15T09:28:37.599Z,96439.91
2023-01-15T09:31:06.599Z,96450.47
2023-01-15T09:33:35.405Z,96463.28
2023-01-15T09:36:04.006Z,96471.94
2023-01-15T09:38:34.461Z,96466.75
2023-01-15T09:41:34.245Z,96485.94
2023-01-15T09:44:24.497Z,96500.91
2023-01-15T09:47:08.572Z,96498.47
2023-01-15T09:49:56.164Z,96498.72
2023-01-15T09:52:43.601Z,96509.44
2023-01-15T09:55:18.425Z,96520.66
2023-01-15T09:57:55.289Z,96516.28
2023-01-15T10:00:28.402Z,96532.31
2023-01-15T10:03:03.733Z,96530.97
2023-01-15T10:05:38.889Z,96534.91
2023-01-15T10:08:17.546Z,96536.59
2023-01-15T10:10:50.117Z,96544.84
2023-01-15T10:13:32.631Z,96552.41
2023-01-15T10:16:01.851Z,96545.41
2023-01-15T10:18:31.268Z,96536.03
2023-01-15T10:21:15.849Z,96549.00
2023-01-15T10:24:02.728Z,96570.47
2023-01-15T10:26:40.984Z,96578.75
2023-01-15T10:29:27.843Z,96586.75
2023-01-15T10:32:05.161Z,96599.50
2023-01-15T10:35:22.741Z,96607.28
2023-01-15T10:38:02.630Z,96611.34
2023-01-15T10:41:00.307Z,96613.00
2023-01-15T10:43:45.794Z,96611.34
2023-01-15T10:46:19.692Z,96605.03
2023-01-15T10:48:52.987Z,96603.34
2023-01-15T10:51:27.796Z,96628.31
2023-01-15T10:54:03.654Z,96634.50
2023-01-15T10:56:40.046Z,96636.38
2023-01-15T10:59:22.304Z,96657.16
2023-01-15T11:01:56.444Z,96645.88
2023-01-15T11:04:28.042Z,96642.13
2023-01-15T11:06:56.841Z,96652.53
2023-01-15T11:09:32.378Z,96667.78
2023-01-15T11:12:38.232Z,96667.13
2023-01-15T11:15:35.162Z,96660.03
2023-01-15T11:18:32.292Z,96657.41
2023-01-15T11:21:03.615Z,96648.94
2023-01-15T11:23:37.587Z,96656.06
2023-01-15T11:26:07.152Z,96649.69
2023-01-15T11:28:40.361Z,96648.81
2023-01-15T11:31:10.829Z,96661.94
2023-01-15T11:33:41.705Z,96660.88
2023-01-15T11:36:23.760Z,96666.56
2023-01-15T11:38:53.137Z,96665.00
2023-01-15T11:41:49.535Z,96675.81
2023-01-15T11:44:38.504Z,96682.66
2023-01-15T11:47:33.564Z,96670.94
2023-01-15T11:50:20.730Z,96664.88
2023-01-15T11:52:57.347Z,96666.00
2023-01-15T11:55:29.229Z,96663.69
2023-01-15T11:57:59.890Z,96663.34
2023-01-15T12:00:34.702Z,96664.38
2023-01-15T12:03:14.149Z,96672.69
2023-01-15T12:05:56.713Z,96671.25
2023-01-15T12:08:44.573Z,96679.94
2023-01-15T12:11:41.247Z,96676.72
2023-01-15T12:14:53.570Z,96691.66
2023-01-15T12:17:50.549Z,96688.38
2023-01-15T12:20:28.502Z,96701.41
2023-01-15T12:23:34.191Z,96721.66
2023-01-15T12:26:17.737Z,96729.38
2023-01-15T12:29:00.835Z,96736.09
2023-01-15T12:31:39.406Z,96741.06
2023-01-15T12:34:21.858Z,96734.91
2023-01-15T12:36:59.641Z,96726.06
2023-01-15T12:39:41.799Z,96713.53
2023-01-15T12:42:36.205Z,96730.84
2023-01-15T12:45:11.899Z,96723.19
2023-01-15T12:47:48.963Z,96765.84
2023-01-15T12:50:36.574Z,96794.81
2023-01-15T12:53:16.799Z,96791.03
2023-01-15T12:55:57.386Z,96787.69
2023-01-15T12:58:41.604Z,96791.84
2023-01-15T13:01:22.814Z,96792.97
2023-01-15T13:04:11.929Z,96800.88
2023-01-15T13:06:47.932Z,96790.59
2023-01-15T13:09:35.482Z,96811.78
2023-01-15T13:12:13.803Z,96806.44
2023-01-15T13:14:45.505Z,96813.50
2023-01-15T13:17:30.258Z,96822.94
2023-01-15T13:20:20.532Z,96817.66
2023-01-15T13:23:04.732Z,96824.66
2023-01-15T13:25:55.737Z,96836.09
2023-01-15T13:28:47.480Z,96843.88
2023-01-15T13:31:48.273Z,96847.94
2023-01-15T13:34:29.605Z,96851.13
2023-01-15T13:37:04.555Z,96853.66
2023-01-15T13:39:41.950Z,96870.38
2023-01-15T13:42:33.597Z,96869.44
2023-01-15T13:45:26.516Z,96870.25
2023-01-15T13:48:03.276Z,96882.50
2023-01-15T13:50:35.751Z,96895.19
2023-01-15T13:53:14.758Z,96892.50
2023-01-15T13:55:54.061Z,96899.66
2023-01-15T13:58:27.274Z,96902.25
2023-01-15T14:01:26.175Z,96922.28
2023-01-15T14:04:04.159Z,96922.41
2023-01-15T14:06:43.257Z,96928.47
2023-01-15T14:09:15.414Z,96934.03
2023-01-15T14:12:06.053Z,96939.44
2023-01-15T14:15:14.358Z,96944.38
2023-01-15T14:18:29.908Z,96950.72
2023-01-15T14:21:29.846Z,96938.97
2023-01-15T14:24:50.235Z,96969.59
2023-01-15T14:27:41.921Z,96968.66
2023-01-15T14:30:32.298Z,96980.44
2023-01-15T14:33:19.796Z,96983.44
2023-01-15T14:35:50.572Z,96964.06
2023-01-15T14:38:24.209Z,96967.25
2023-01-15T14:41:00.564Z,96976.28
2023-01-15T14:43:33.525Z,96975.84
2023-01-15T14:46:20.316Z,96978.84
2023-01-15T14:48:49.016Z,96992.31
2023-01-15T14:51:27.719Z,96996.13
2023-01-15T14:54:00.902Z,97002.63
2023-01-15T14:56:36.240Z,97005.44
2023-01-15T14:59:18.513Z,97006.53
2023-01-15T15:01:56.028Z,97009.69
2023-01-15T15:04:37.095Z,97009.50
2023-01-15T15:07:14.231Z,97015.88
2023-01-15T15:09:47.646Z,97003.66
2023-01-15T15:12:34.597Z,97001.91
2023-01-15T15:15:12.118Z,96996.34
2023-01-15T15:17:55.357Z,97002.88
2023-01-15T15:20:35.692Z,97013.00
2023-01-15T15:23:14.127Z,97008.09
2023-01-15T15:25:44.461Z,97018.09
2023-01-15T15:28:13.543Z,97029.63
2023-01-15T15:30:47.070Z,97029.28
2023-01-15T15:33:21.202Z,97039.13
2023-01-15T15:35:53.855Z,97035.72
2023-01-15T15:38:26.075Z,97033.44
2023-01-15T15:40:59.384Z,97041.03
2023-01-15T15:43:57.724Z,97038.59
2023-01-15T15:46:49.088Z,97045.09
2023-01-15T15:49:20.038Z,97038.72
2023-01-15T15:51:51.129Z,97045.47
2023-01-15T15:54:23.801Z,97040.50
2023-01-15T15:56:59.859Z,97053.38
2023-01-15T15:59:35.550Z,97060.03
2023-01-15T16:02:19.805Z,97059.94
2023-01-15T16:04:51.122Z,97060.34
2023-01-15T16:07:27.453Z,97069.34
2023-01-15T16:10:02.090Z,97061.97
2023-01-15T16:12:38.506Z,97064.47
2023-01-15T16:15:15.455Z,97064.16
2023-01-15T16:17:45.136Z,97065.16
2023-01-15T16:20:17.617Z,97063.38
2023-01-15T16:22:47.950Z,97069.69
2023-01-15T16:25:28.137Z,97060.38
2023-01-15T16:27:56.860Z,97065.31
2023-01-15T16:30:25.852Z,97062.31
2023-01-15T16:33:00.154Z,97074.22
2023-01-15T16:35:31.185Z,97085.00
2023-01-15T16:38:03.172Z,97087.56
2023-01-15T16:40:38.324Z,97087.94
2023-01-15T16:43:11.526Z,97086.25
2023-01-15T16:45:59.656Z,97094.84
2023-01-15T16:48:34.071Z,97097.63
2023-01-15T16:51:31.270Z,97091.03
2023-01-15T16:54:02.043Z,97102.63
2023-01-15T16:56:53.090Z,97100.75
2023-01-15T17:00:02.039Z,97114.22
2023-01-15T17:02:42.973Z,97103.50
2023-01-15T17:05:25.595Z,97108.84
2023-01-15T17:07:55.988Z,97101.47
2023-01-15T17:10:28.642Z,97100.69
2023-01-15T17:12:59.648Z,97104.88
2023-01-15T17:15:42.392Z,97103.50
2023-01-15T17:18:29.507Z,97099.28
2023-01-15T17:20:59.999Z,97108.69
2023-01-15T17:23:36.204Z,97102.78
2023-01-15T17:26:06.778Z,97113.88
2023-01-15T17:28:36.888Z,97121.75
2023-01-15T17:31:05.772Z,97119.25
2023-01-15T17:33:34.389Z,97114.38
2023-01-15T17:36:02.904Z,97119.16
2023-01-15T17:38:31.524Z,97121.75
2023-01-15T17:41:01.818Z,97120.53
2023-01-15T17:43:30.317Z,97117.84
2023-01-15T17:46:01.182Z,97123.66
2023-01-15T17:48:29.742Z,97120.16
2023-01-15T17:51:01.380Z,97131.13
2023-01-15T17:53:32.375Z,97131.22
2023-01-15T17:56:18.429Z,97131.22
2023-01-15T17:59:06.989Z,97126.66
2023-01-15T18:01:59.643Z,97130.44
2023-01-15T18:04:52.090Z,97134.41
2023-01-15T18:07:26.341Z,97131.44
2023-01-15T18:09:57.285Z,97133.44
2023-01-15T18:12:25.829Z,97135.81
2023-01-15T18:14:55.384Z,97132.72
2023-01-15T18:17:25.530Z,97127.34
2023-01-15T18:19:55.807Z,97119.66
2023-01-15T18:22:24.796Z,97119.13
2023-01-15T18:24:54.411Z,97117.25
2023-01-15T18:27:23.111Z,97118.41
2023-01-15T18:29:51.842Z,97121.69
2023-01-15T18:32:20.666Z,97121.16
2023-01-15T18:34:50.645Z,97111.00
2023-01-15T18:37:19.388Z,97113.69
2023-01-15T18:39:48.087Z,97109.50
2023-01-15T18:42:34.352Z,97110.25
2023-01-15T18:45:20.495Z,97103.38
2023-01-15T18:47:49.047Z,97104.88
2023-01-15T18:50:19.392Z,97109.97
2023-01-15T18:52:54.037Z,97106.28
2023-01-15T18:55:25.533Z,97100.91
2023-01-15T18:57:54.489Z,97101.50
2023-01-15T19:00:25.555Z,97100.25
2023-01-15T19:02:54.321Z,97103.38
2023-01-15T19:05:24.673Z,97098.88
2023-01-15T19:07:53.383Z,97100.84
2023-01-15T19:10:22.724Z,97095.06
2023-01-15T19:12:51.622Z,97102.09
2023-01-15T19:15:39.252Z,97088.06
2023-01-15T19:18:29.964Z,97084.84
2023-01-15T19:20:59.950Z,97080.31
2023-01-15T19:23:28.884Z,97088.22
2023-01-15T19:25:57.648Z,97085.72
2023-01-15T19:28:26.382Z,97085.44
2023-01-15T19:31:12.636Z,97088.50
2023-01-15T19:33:41.375Z,97073.19
2023-01-15T19:36:11.944Z,97076.75
2023-01-15T19:38:41.060Z,97077.88
2023-01-15T19:41:30.818Z,97076.03
2023-01-15T19:44:16.991Z,97075.44
2023-01-15T19:47:04.299Z,97077.75
2023-01-15T19:49:55.251Z,97075.22
2023-01-15T19:52:38.066Z,97075.31
2023-01-15T19:55:10.771Z,97074.94
2023-01-15T19:57:39.759Z,97063.19
2023-01-15T20:00:12.115Z,97059.91
2023-01-15T20:02:41.892Z,97066.97
2023-01-15T20:05:15.245Z,97065.56
2023-01-15T20:07:45.516Z,97065.38
2023-01-15T20:10:18.007Z,97062.50
2023-01-15T20:13:04.811Z,97061.47
2023-01-15T20:15:34.352Z,97056.31
2023-01-15T20:18:03.005Z,97057.91
2023-01-15T20:20:31.753Z,97057.50
2023-01-15T20:23:02.099Z,97065.34
2023-01-15T20:25:31.792Z,97057.06
2023-01-15T20:28:01.397Z,97058.84
2023-01-15T20:30:30.699Z,97050.66
2023-01-15T20:32:59.859Z,97050.66
2023-01-15T20:35:31.689Z,97042.59
2023-01-15T20:38:01.947Z,97038.91
2023-01-15T20:40:31.129Z,97049.31
2023-01-15T20:43:17.508Z,97043.34
2023-01-15T20:45:46.400Z,97033.47
2023-01-15T20:48:33.287Z,97042.34
2023-01-15T20:51:12.824Z,97035.09
2023-01-15T20:53:42.821Z,97041.31
2023-01-15T20:56:16.846Z,97038.75
2023-01-15T20:58:45.960Z,97035.16
2023-01-15T21:01:14.834Z,97028.06
2023-01-15T21:03:43.635Z,97025.38
2023-01-15T21:06:12.245Z,97022.09
2023-01-15T21:08:44.747Z,97022.69
2023-01-15T21:11:13.463Z,97018.97
2023-01-15T21:13:44.928Z,97015.53
2023-01-15T21:16:15.814Z,97018.63
2023-01-15T21:18:45.292Z,97010.16
2023-01-15T21:21:17.166Z,97019.78
2023-01-15T21:23:47.795Z,97012.25
2023-01-15T21:26:19.055Z,97016.66
2023-01-15T21:28:47.770Z,97007.03
2023-01-15T21:31:16.748Z,97005.84
2023-01-15T21:33:45.404Z,97017.13
2023-01-15T21:36:16.198Z,97000.19
2023-01-15T21:38:51.302Z,97005.47
2023-01-15T21:41:20.077Z,97006.44
2023-01-15T21:44:06.356Z,96994.88
2023-01-15T21:46:35.306Z,96997.94
2023-01-15T21:49:05.939Z,96995.34
2023-01-15T21:51:34.671Z,96998.59
2023-01-15T21:54:05.173Z,96993.66
2023-01-15T21:56:33.935Z,96988.22
2023-01-15T21:59:02.843Z,96981.13
2023-01-15T22:01:31.614Z,96974.84
2023-01-15T22:04:01.672Z,96975.81
2023-01-15T22:06:30.477Z,96980.19
2023-01-15T22:08:59.713Z,96968.50
2023-01-15T22:11:43.725Z,96971.97
2023-01-15T22:14:15.165Z,96964.84
2023-01-15T22:16:45.805Z,96959.56
2023-01-15T22:19:19.610Z,96956.56
2023-01-15T22:21:49.806Z,96949.50
2023-01-15T22:24:19.337Z,96947.41
2023-01-15T22:26:54.371Z,96943.66
2023-01-15T22:29:25.489Z,96939.28
2023-01-15T22:31:54.991Z,96932.78
2023-01-15T22:34:25.299Z,96926.94
2023-01-15T22:36:55.379Z,96927.25
2023-01-15T22:39:26.258Z,96921.94
2023-01-15T22:42:14.476Z,96913.81
2023-01-15T22:44:45.123Z,96908.63
2023-01-15T22:47:14.276Z,96897.97
2023-01-15T22:49:43.032Z,96900.66
2023-01-15T22:52:11.961Z,96892.03
2023-01-15T22:54:42.271Z,96883.63
2023-01-15T22:57:13.151Z,96877.06
2023-01-15T22:59:43.733Z,96870.81
2023-01-15T23:02:14.267Z,96856.19
2023-01-15T23:04:42.837Z,96857.09
2023-01-15T23:07:11.647Z,96847.97
2023-01-15T23:09:40.353Z,96846.25
2023-01-15T23:12:09.199Z,96838.00
2023-01-15T23:14:39.407Z,96828.44
2023-01-15T23:17:08.143Z,96824.25
2023-01-15T23:19:37.101Z,96829.41
2023-01-15T23:22:05.759Z,96818.41
2023-01-15T23:24:34.386Z,96813.50
2023-01-15T23:27:03.978Z,96806.03
2023-01-15T23:29:34.589Z,96808.81
2023-01-15T23:32:04.657Z,96805.75
2023-01-15T23:34:33.183Z,96801.56
2023-01-15T23:37:01.903Z,96801.75
2023-01-15T23:39:30.614Z,96792.78
2023-01-15T23:42:16.816Z,96793.00
2023-01-15T23:45:03.110Z,96781.28
2023-01-15T23:47:33.306Z,96782.47
2023-01-15T23:50:03.415Z,96784.63
2023-01-15T23:52:32.026Z,96774.78
2023-01-15T23:55:00.597Z,96770.81
2023-01-15T23:57:29.440Z,96769.41
2023-01-15T23:59:58.073Z,96763.66
